sensor_id;sensor_type;location;lat;lon;timestamp;pressure;altitude;pressure_sealevel;temperature;humidity
35878;BME280;21982;49.804;24.072;2023-02-19T00:01:46;96436.59;;;5.12;73.20
35878;BME280;21982;49.804;24.072;2023-02-19T00:04:18;96509.81;;;5.53;72.80
35878;BME280;21982;49.804;24.072;2023-02-19T00:06:44;96550.34;;;5.73;72.96
35878;BME280;21982;49.804;24.072;2023-02-19T00:09:11;96379.69;;;4.67;72.89
35878;BME280;21982;49.804;24.072;2023-02-19T00:11:37;96547.25;;;5.69;72.80
35878;BME280;21982;49.804;24.072;2023-02-19T00:14:04;96569.44;;;5.67;72.83
35878;BME280;21982;49.804;24.072;2023-02-19T00:16:31;96551.69;;;5.69;72.58
35878;BME280;21982;49.804;24.072;2023-02-19T00:18:59;96403.59;;;4.72;72.68
35878;BME280;21982;49.804;24.072;2023-02-19T00:21:25;96516.16;;;5.35;72.68
35878;BME280;21982;49.804;24.072;2023-02-19T00:23:56;96559.63;;;5.61;72.52
35878;BME280;21982;49.804;24.072;2023-02-19T00:26:22;96564.56;;;5.56;73.10
35878;BME280;21982;49.804;24.072;2023-02-19T00:28:49;96570.03;;;5.54;72.63
35878;BME280;21982;49.804;24.072;2023-02-19T00:31:16;96577.91;;;5.54;72.65
35878;BME280;21982;49.804;24.072;2023-02-19T00:33:46;96422.81;;;4.64;72.37
35878;BME280;21982;49.804;24.072;2023-02-19T00:36:13;96569.78;;;5.64;72.73
35878;BME280;21982;49.804;24.072;2023-02-19T00:38:40;96567.84;;;5.58;72.66
35878;BME280;21982;49.804;24.072;2023-02-19T00:41:06;96577.91;;;5.54;72.49
35878;BME280;21982;49.804;24.072;2023-02-19T00:43:55;96523.78;;;5.22;72.35
35878;BME280;21982;49.804;24.072;2023-02-19T00:48:51;96571.47;;;5.57;72.23
35878;BME280;21982;49.804;24.072;2023-02-19T00:51:18;96577.66;;;5.64;72.28
35878;BME280;21982;49.804;24.072;2023-02-19T00:53:44;96494.72;;;5.01;71.96
35878;BME280;21982;49.804;24.072;2023-02-19T00:56:10;96368.72;;;4.01;71.72
35878;BME280;21982;49.804;24.072;2023-02-19T00:58:35;96534.88;;;5.32;71.65
35878;BME280;21982;49.804;24.072;2023-02-19T01:01:00;96527.06;;;4.93;72.12
35878;BME280;21982;49.804;24.072;2023-02-19T01:03:27;96602.53;;;5.76;71.85
35878;BME280;21982;49.804;24.072;2023-02-19T01:05:52;96496.00;;;5.05;71.83
35878;BME280;21982;49.804;24.072;2023-02-19T01:08:19;96443.91;;;4.71;71.94
35878;BME280;21982;49.804;24.072;2023-02-19T01:10:45;96481.59;;;5.01;71.60
35878;BME280;21982;49.804;24.072;2023-02-19T01:13:11;96364.19;;;4.26;71.57
35878;BME280;21982;49.804;24.072;2023-02-19T01:15:36;96332.41;;;3.98;71.89
35878;BME280;21982;49.804;24.072;2023-02-19T01:18:02;96593.88;;;5.67;71.79
35878;BME280;21982;49.804;24.072;2023-02-19T01:20:27;96538.66;;;5.30;71.52
35878;BME280;21982;49.804;24.072;2023-02-19T01:22:55;96564.47;;;5.49;71.58
35878;BME280;21982;49.804;24.072;2023-02-19T01:25:21;96600.34;;;5.57;71.84
35878;BME280;21982;49.804;24.072;2023-02-19T01:27:46;96616.41;;;5.62;71.74
35878;BME280;21982;49.804;24.072;2023-02-19T01:30:11;96557.22;;;5.28;71.83
35878;BME280;21982;49.804;24.072;2023-02-19T01:32:37;96384.72;;;4.15;71.56
35878;BME280;21982;49.804;24.072;2023-02-19T01:35:03;96513.53;;;4.82;71.45
35878;BME280;21982;49.804;24.072;2023-02-19T01:37:28;96512.81;;;4.88;71.52
35878;BME280;21982;49.804;24.072;2023-02-19T01:39:54;96443.91;;;4.40;71.73
35878;BME280;21982;49.804;24.072;2023-02-19T01:42:19;96491.94;;;4.71;71.62
35878;BME280;21982;49.804;24.072;2023-02-19T01:47:11;96555.81;;;5.18;71.34
35878;BME280;21982;49.804;24.072;2023-02-19T01:49:44;96621.72;;;5.54;71.22
35878;BME280;21982;49.804;24.072;2023-02-19T01:52:31;96570.94;;;5.08;70.98
35878;BME280;21982;49.804;24.072;2023-02-19T01:55:00;96639.16;;;5.47;71.52
35878;BME280;21982;49.804;24.072;2023-02-19T01:57:29;96652.59;;;5.52;71.46
35878;BME280;21982;49.804;24.072;2023-02-19T02:00:00;96638.81;;;5.50;71.38
35878;BME280;21982;49.804;24.072;2023-02-19T02:02:29;96399.19;;;4.02;70.98
35878;BME280;21982;49.804;24.072;2023-02-19T02:04:56;96528.94;;;4.85;71.14
35878;BME280;21982;49.804;24.072;2023-02-19T02:07:24;96630.28;;;5.48;71.11
35878;BME280;21982;49.804;24.072;2023-02-19T02:10:07;96526.34;;;4.77;71.37
35878;BME280;21982;49.804;24.072;2023-02-19T02:12:45;96573.22;;;5.11;71.00
35878;BME280;21982;49.804;24.072;2023-02-19T02:15:12;96604.75;;;5.33;71.10
35878;BME280;21982;49.804;24.072;2023-02-19T02:18:16;96628.97;;;5.52;70.86
35878;BME280;21982;49.804;24.072;2023-02-19T02:29:16;96615.88;;;5.44;71.17
35878;BME280;21982;49.804;24.072;2023-02-19T02:31:48;96595.00;;;5.19;71.12
35878;BME280;21982;49.804;24.072;2023-02-19T02:34:28;96509.03;;;4.59;70.46
35878;BME280;21982;49.804;24.072;2023-02-19T02:36:55;96638.69;;;5.43;71.24
35878;BME280;21982;49.804;24.072;2023-02-19T02:39:24;96354.44;;;3.73;70.68
35878;BME280;21982;49.804;24.072;2023-02-19T02:41:56;96628.84;;;5.45;70.81
35878;BME280;21982;49.804;24.072;2023-02-19T02:44:41;96453.13;;;4.28;70.66
35878;BME280;21982;49.804;24.072;2023-02-19T02:47:27;96627.53;;;5.41;70.72
35878;BME280;21982;49.804;24.072;2023-02-19T02:50:05;96470.44;;;4.45;70.73
35878;BME280;21982;49.804;24.072;2023-02-19T02:52:34;96409.28;;;4.14;70.63
35878;BME280;21982;49.804;24.072;2023-02-19T02:55:21;96621.59;;;5.47;70.67
35878;BME280;21982;49.804;24.072;2023-02-19T02:57:46;96620.69;;;5.32;70.27
35878;BME280;21982;49.804;24.072;2023-02-19T03:00:13;96643.94;;;5.43;70.54
35878;BME280;21982;49.804;24.072;2023-02-19T03:02:42;96560.84;;;4.88;70.60
35878;BME280;21982;49.804;24.072;2023-02-19T03:05:12;96642.97;;;5.36;70.64
35878;BME280;21982;49.804;24.072;2023-02-19T03:08:28;96596.06;;;5.02;70.20
35878;BME280;21982;49.804;24.072;2023-02-19T03:11:03;96571.06;;;4.83;70.50
35878;BME280;21982;49.804;24.072;2023-02-19T03:13:51;96599.38;;;4.96;70.30
35878;BME280;21982;49.804;24.072;2023-02-19T03:16:37;96614.44;;;5.02;70.35
35878;BME280;21982;49.804;24.072;2023-02-19T03:19:24;96272.22;;;2.63;69.88
35878;BME280;21982;49.804;24.072;2023-02-19T03:22:09;96670.09;;;5.20;69.95
35878;BME280;21982;49.804;24.072;2023-02-19T03:24:44;96672.72;;;5.20;69.89
35878;BME280;21982;49.804;24.072;2023-02-19T03:27:31;96617.03;;;4.55;69.85
35878;BME280;21982;49.804;24.072;2023-02-19T03:30:02;96684.91;;;5.13;69.82
35878;BME280;21982;49.804;24.072;2023-02-19T03:32:38;96686.56;;;5.14;69.44
35878;BME280;21982;49.804;24.072;2023-02-19T03:35:16;96685.00;;;4.81;69.46
35878;BME280;21982;49.804;24.072;2023-02-19T03:37:53;96553.03;;;4.25;69.51
35878;BME280;21982;49.804;24.072;2023-02-19T03:40:25;96632.88;;;4.78;69.37
35878;BME280;21982;49.804;24.072;2023-02-19T03:45:35;96698.03;;;5.13;69.28
35878;BME280;21982;49.804;24.072;2023-02-19T03:50:49;96472.75;;;3.68;68.79
35878;BME280;21982;49.804;24.072;2023-02-19T03:53:37;96700.84;;;5.12;68.90
35878;BME280;21982;49.804;24.072;2023-02-19T03:56:08;96699.38;;;5.09;69.17
35878;BME280;21982;49.804;24.072;2023-02-19T04:01:09;96659.13;;;4.78;68.51
35878;BME280;21982;49.804;24.072;2023-02-19T04:04:08;96705.28;;;5.03;68.53
35878;BME280;21982;49.804;24.072;2023-02-19T04:06:37;96673.19;;;4.85;68.41
35878;BME280;21982;49.804;24.072;2023-02-19T04:09:06;96696.41;;;5.04;67.88
35878;BME280;21982;49.804;24.072;2023-02-19T04:11:33;96637.16;;;4.62;68.50
35878;BME280;21982;49.804;24.072;2023-02-19T04:14:09;96702.00;;;5.01;68.67
35878;BME280;21982;49.804;24.072;2023-02-19T04:16:40;96698.72;;;4.99;68.44
35878;BME280;21982;49.804;24.072;2023-02-19T04:19:10;96706.59;;;4.99;68.47
35878;BME280;21982;49.804;24.072;2023-02-19T04:21:37;96710.38;;;4.96;68.35
35878;BME280;21982;49.804;24.072;2023-02-19T04:24:09;96695.44;;;4.97;68.08
35878;BME280;21982;49.804;24.072;2023-02-19T04:26:35;96705.63;;;4.92;68.43
35878;BME280;21982;49.804;24.072;2023-02-19T04:29:01;96700.72;;;4.89;68.26
35878;BME280;21982;49.804;24.072;2023-02-19T04:31:28;96697.47;;;4.79;68.42
35878;BME280;21982;49.804;24.072;2023-02-19T04:33:55;96695.50;;;4.81;68.44
35878;BME280;21982;49.804;24.072;2023-02-19T04:36:20;96575.34;;;3.88;68.19
35878;BME280;21982;49.804;24.072;2023-02-19T04:38:46;96586.16;;;3.93;68.42
35878;BME280;21982;49.804;24.072;2023-02-19T04:41:11;96588.94;;;4.08;68.58
35878;BME280;21982;49.804;24.072;2023-02-19T04:43:36;96584.19;;;4.12;68.47
35878;BME280;21982;49.804;24.072;2023-02-19T04:46:02;96722.06;;;4.78;68.19
35878;BME280;21982;49.804;24.072;2023-02-19T04:48:28;96706.66;;;4.75;68.49
35878;BME280;21982;49.804;24.072;2023-02-19T04:50:54;96685.84;;;4.57;68.18
35878;BME280;21982;49.804;24.072;2023-02-19T04:53:39;96490.91;;;3.38;68.15
35878;BME280;21982;49.804;24.072;2023-02-19T04:56:07;96707.63;;;4.74;68.27
35878;BME280;21982;49.804;24.072;2023-02-19T04:58:32;96706.97;;;4.71;68.15
35878;BME280;21982;49.804;24.072;2023-02-19T05:00:58;96706.50;;;4.68;68.30
35878;BME280;21982;49.804;24.072;2023-02-19T05:03:24;96567.34;;;3.74;68.18
35878;BME280;21982;49.804;24.072;2023-02-19T05:05:49;96541.44;;;3.30;68.00
35878;BME280;21982;49.804;24.072;2023-02-19T05:08:14;96604.81;;;4.07;68.01
35878;BME280;21982;49.804;24.072;2023-02-19T05:10:40;96575.66;;;3.93;67.75
35878;BME280;21982;49.804;24.072;2023-02-19T05:13:05;96690.25;;;4.64;67.80
35878;BME280;21982;49.804;24.072;2023-02-19T05:15:30;96650.31;;;4.38;67.65
35878;BME280;21982;49.804;24.072;2023-02-19T05:17:56;96563.38;;;3.94;67.74
35878;BME280;21982;49.804;24.072;2023-02-19T05:20:21;96614.47;;;4.14;68.13
35878;BME280;21982;49.804;24.072;2023-02-19T05:22:47;96682.22;;;4.82;67.67
35878;BME280;21982;49.804;24.072;2023-02-19T05:25:12;96688.94;;;4.85;67.27
35878;BME280;21982;49.804;24.072;2023-02-19T05:27:37;96691.06;;;4.81;67.70
35878;BME280;21982;49.804;24.072;2023-02-19T05:30:03;96709.59;;;4.80;67.64
35878;BME280;21982;49.804;24.072;2023-02-19T05:32:28;96707.63;;;4.82;67.84
35878;BME280;21982;49.804;24.072;2023-02-19T05:34:54;96510.38;;;3.59;67.94
35878;BME280;21982;49.804;24.072;2023-02-19T05:37:20;96711.53;;;4.86;67.43
35878;BME280;21982;49.804;24.072;2023-02-19T05:39:47;96576.66;;;4.09;67.33
35878;BME280;21982;49.804;24.072;2023-02-19T05:42:13;96710.44;;;4.64;67.48
35878;BME280;21982;49.804;24.072;2023-02-19T05:44:40;96235.94;;;1.37;67.57
35878;BME280;21982;49.804;24.072;2023-02-19T05:47:05;96631.31;;;4.28;67.87
35878;BME280;21982;49.804;24.072;2023-02-19T05:49:30;96625.25;;;4.19;67.62
35878;BME280;21982;49.804;24.072;2023-02-19T05:51:56;96716.31;;;4.74;67.75
35878;BME280;21982;49.804;24.072;2023-02-19T05:54:21;96716.66;;;4.71;67.83
35878;BME280;21982;49.804;24.072;2023-02-19T05:56:46;96633.13;;;4.03;68.18
35878;BME280;21982;49.804;24.072;2023-02-19T05:59:20;96605.78;;;3.89;68.04
35878;BME280;21982;49.804;24.072;2023-02-19T06:01:47;96722.72;;;4.71;68.17
35878;BME280;21982;49.804;24.072;2023-02-19T06:04:13;96699.97;;;4.48;68.10
35878;BME280;21982;49.804;24.072;2023-02-19T06:06:40;96641.97;;;4.02;68.44
35878;BME280;21982;49.804;24.072;2023-02-19T06:09:06;96720.28;;;4.46;68.29
35878;BME280;21982;49.804;24.072;2023-02-19T06:11:32;96706.31;;;4.61;68.51
35878;BME280;21982;49.804;24.072;2023-02-19T06:13:58;96714.84;;;4.63;68.63
35878;BME280;21982;49.804;24.072;2023-02-19T06:16:23;96452.97;;;3.01;68.34
35878;BME280;21982;49.804;24.072;2023-02-19T06:18:50;96697.50;;;4.46;68.49
35878;BME280;21982;49.804;24.072;2023-02-19T06:21:16;96714.84;;;4.55;68.49
35878;BME280;21982;49.804;24.072;2023-02-19T06:23:42;96704.06;;;4.50;68.94
35878;BME280;21982;49.804;24.072;2023-02-19T06:26:14;96709.59;;;4.63;68.75
35878;BME280;21982;49.804;24.072;2023-02-19T06:28:42;96706.31;;;4.61;68.63
35878;BME280;21982;49.804;24.072;2023-02-19T06:31:08;96660.81;;;4.22;69.04
35878;BME280;21982;49.804;24.072;2023-02-19T06:33:34;96716.50;;;4.64;69.31
35878;BME280;21982;49.804;24.072;2023-02-19T06:36:01;96714.84;;;4.63;69.26
35878;BME280;21982;49.804;24.072;2023-02-19T06:38:27;96714.19;;;4.61;69.17
35878;BME280;21982;49.804;24.072;2023-02-19T06:40:53;96677.03;;;4.42;69.54
35878;BME280;21982;49.804;24.072;2023-02-19T06:43:20;96679.00;;;4.48;69.72
35878;BME280;21982;49.804;24.072;2023-02-19T06:45:45;96706.81;;;4.65;69.54
35878;BME280;21982;49.804;24.072;2023-02-19T06:48:11;96704.03;;;4.66;69.45
35878;BME280;21982;49.804;24.072;2023-02-19T06:50:36;96590.91;;;4.06;69.81
35878;BME280;21982;49.804;24.072;2023-02-19T06:53:01;96679.00;;;4.48;69.48
35878;BME280;21982;49.804;24.072;2023-02-19T06:55:27;96699.13;;;4.71;70.15
35878;BME280;21982;49.804;24.072;2023-02-19T06:57:52;96562.56;;;4.01;69.53
35878;BME280;21982;49.804;24.072;2023-02-19T07:00:17;96685.34;;;4.78;69.63
35878;BME280;21982;49.804;24.072;2023-02-19T07:02:43;96672.72;;;4.73;70.09
35878;BME280;21982;49.804;24.072;2023-02-19T07:05:08;96686.97;;;4.79;70.37
35878;BME280;21982;49.804;24.072;2023-02-19T07:07:34;96626.06;;;4.44;69.90
35878;BME280;21982;49.804;24.072;2023-02-19T07:09:59;96557.66;;;4.07;70.10
35878;BME280;21982;49.804;24.072;2023-02-19T07:12:24;96666.00;;;4.79;70.32
35878;BME280;21982;49.804;24.072;2023-02-19T07:14:50;96662.06;;;4.83;70.33
35878;BME280;21982;49.804;24.072;2023-02-19T07:17:15;96608.03;;;4.49;70.07
35878;BME280;21982;49.804;24.072;2023-02-19T07:19:41;96594.78;;;4.43;70.07
35878;BME280;21982;49.804;24.072;2023-02-19T07:22:06;96604.41;;;4.58;70.41
35878;BME280;21982;49.804;24.072;2023-02-19T07:24:31;96646.28;;;4.91;70.28
35878;BME280;21982;49.804;24.072;2023-02-19T07:26:57;96648.22;;;4.97;70.36
35878;BME280;21982;49.804;24.072;2023-02-19T07:29:22;96640.19;;;4.98;70.36
35878;BME280;21982;49.804;24.072;2023-02-19T07:31:47;96583.41;;;4.66;70.28
35878;BME280;21982;49.804;24.072;2023-02-19T07:34:13;96643.31;;;4.94;70.60
35878;BME280;21982;49.804;24.072;2023-02-19T07:36:38;96579.47;;;4.62;70.71
35878;BME280;21982;49.804;24.072;2023-02-19T07:39:03;96632.78;;;5.02;70.31
35878;BME280;21982;49.804;24.072;2023-02-19T07:41:29;96612.50;;;4.88;70.81
35878;BME280;21982;49.804;24.072;2023-02-19T07:43:54;96588.97;;;4.63;70.34
35878;BME280;21982;49.804;24.072;2023-02-19T07:46:21;96514.72;;;4.24;70.37
35878;BME280;21982;49.804;24.072;2023-02-19T07:48:46;96430.03;;;3.68;70.52
35878;BME280;21982;49.804;24.072;2023-02-19T07:51:14;96629.63;;;5.15;70.57
35878;BME280;21982;49.804;24.072;2023-02-19T07:53:47;96621.25;;;5.19;70.52
35878;BME280;21982;49.804;24.072;2023-02-19T07:56:15;96431.13;;;3.90;70.51
35878;BME280;21982;49.804;24.072;2023-02-19T07:58:41;96628.81;;;5.14;70.53
35878;BME280;21982;49.804;24.072;2023-02-19T08:01:20;96621.13;;;5.13;70.51
35878;BME280;21982;49.804;24.072;2023-02-19T08:04:10;96618.38;;;4.98;70.71
35878;BME280;21982;49.804;24.072;2023-02-19T08:06:36;96564.22;;;4.66;70.55
35878;BME280;21982;49.804;24.072;2023-02-19T08:09:03;96584.53;;;4.72;71.12
35878;BME280;21982;49.804;24.072;2023-02-19T08:11:29;96575.53;;;4.75;70.82
35878;BME280;21982;49.804;24.072;2023-02-19T08:14:13;96577.63;;;4.79;71.10
35878;BME280;21982;49.804;24.072;2023-02-19T08:16:38;96625.53;;;5.12;71.13
35878;BME280;21982;49.804;24.072;2023-02-19T08:19:03;96630.63;;;5.14;71.02
35878;BME280;21982;49.804;24.072;2023-02-19T08:21:29;96615.38;;;5.09;71.11
35878;BME280;21982;49.804;24.072;2023-02-19T08:23:54;96640.00;;;5.08;70.94
35878;BME280;21982;49.804;24.072;2023-02-19T08:26:20;96636.06;;;5.04;70.77
35878;BME280;21982;49.804;24.072;2023-02-19T08:28:47;96525.16;;;4.40;71.10
35878;BME280;21982;49.804;24.072;2023-02-19T08:31:13;96629.22;;;4.95;70.88
35878;BME280;21982;49.804;24.072;2023-02-19T08:33:39;96629.63;;;5.15;71.04
35878;BME280;21982;49.804;24.072;2023-02-19T08:36:07;96491.59;;;4.27;70.67
35878;BME280;21982;49.804;24.072;2023-02-19T08:38:33;96596.44;;;4.91;70.64
35878;BME280;21982;49.804;24.072;2023-02-19T08:41:06;96550.63;;;4.62;70.69
35878;BME280;21982;49.804;24.072;2023-02-19T08:43:33;96610.88;;;4.87;70.83
35878;BME280;21982;49.804;24.072;2023-02-19T08:45:58;96597.91;;;4.85;71.13
35878;BME280;21982;49.804;24.072;2023-02-19T08:48:25;96619.16;;;5.07;70.75
35878;BME280;21982;49.804;24.072;2023-02-19T08:51:01;96596.09;;;4.94;70.89
35878;BME280;21982;49.804;24.072;2023-02-19T08:53:31;96604.38;;;4.75;70.67
35878;BME280;21982;49.804;24.072;2023-02-19T08:55:57;96581.47;;;4.52;70.83
35878;BME280;21982;49.804;24.072;2023-02-19T08:58:23;96583.63;;;4.49;70.59
35878;BME280;21982;49.804;24.072;2023-02-19T09:00:51;96619.44;;;4.72;71.06
35878;BME280;21982;49.804;24.072;2023-02-19T09:03:16;96503.94;;;4.11;71.16
35878;BME280;21982;49.804;24.072;2023-02-19T09:05:42;96608.78;;;4.82;71.25
35878;BME280;21982;49.804;24.072;2023-02-19T09:08:08;96604.25;;;5.07;71.11
35878;BME280;21982;49.804;24.072;2023-02-19T09:10:34;96605.59;;;5.34;71.10
35878;BME280;21982;49.804;24.072;2023-02-19T09:13:01;96622.72;;;5.53;70.46
35878;BME280;21982;49.804;24.072;2023-02-19T09:15:27;96604.63;;;5.58;70.37
35878;BME280;21982;49.804;24.072;2023-02-19T09:17:54;96560.47;;;5.30;70.23
35878;BME280;21982;49.804;24.072;2023-02-19T09:20:20;96582.81;;;5.26;70.03
35878;BME280;21982;49.804;24.072;2023-02-19T09:22:45;96402.34;;;4.29;70.10
35878;BME280;21982;49.804;24.072;2023-02-19T09:25:11;96559.78;;;5.36;70.30
35878;BME280;21982;49.804;24.072;2023-02-19T09:27:36;96568.66;;;5.35;70.00
35878;BME280;21982;49.804;24.072;2023-02-19T09:30:02;96607.19;;;5.66;70.22
35878;BME280;21982;49.804;24.072;2023-02-19T09:32:31;96551.97;;;5.28;69.93
35878;BME280;21982;49.804;24.072;2023-02-19T09:34:57;96516.34;;;5.03;70.37
35878;BME280;21982;49.804;24.072;2023-02-19T09:37:26;96579.13;;;5.44;69.79
35878;BME280;21982;49.804;24.072;2023-02-19T09:39:52;96607.78;;;5.53;70.14
35878;BME280;21982;49.804;24.072;2023-02-19T09:42:21;96603.69;;;5.51;69.67
35878;BME280;21982;49.804;24.072;2023-02-19T09:44:50;96590.25;;;5.46;69.89
35878;BME280;21982;49.804;24.072;2023-02-19T09:47:18;96611.50;;;5.59;69.81
35878;BME280;21982;49.804;24.072;2023-02-19T09:49:47;96604.78;;;5.56;69.88
35878;BME280;21982;49.804;24.072;2023-02-19T09:52:39;96578.69;;;5.32;69.66
35878;BME280;21982;49.804;24.072;2023-02-19T09:55:30;96601.00;;;5.59;69.49
35878;BME280;21982;49.804;24.072;2023-02-19T09:57:58;96595.22;;;5.63;70.13
35878;BME280;21982;49.804;24.072;2023-02-19T10:00:28;96576.63;;;5.73;69.66
35878;BME280;21982;49.804;24.072;2023-02-19T10:03:08;96535.06;;;5.54;69.85
35878;BME280;21982;49.804;24.072;2023-02-19T10:05:35;96586.78;;;5.76;69.95
35878;BME280;21982;49.804;24.072;2023-02-19T10:08:04;96582.69;;;5.73;69.50
35878;BME280;21982;49.804;24.072;2023-02-19T10:10:31;96577.25;;;5.75;69.84
35878;BME280;21982;49.804;24.072;2023-02-19T10:13:23;96576.22;;;5.84;69.40
35878;BME280;21982;49.804;24.072;2023-02-19T10:15:56;96557.59;;;5.71;69.65
35878;BME280;21982;49.804;24.072;2023-02-19T10:18:37;96519.59;;;5.59;69.66
35878;BME280;21982;49.804;24.072;2023-02-19T10:21:05;96549.81;;;5.78;69.35
35878;BME280;21982;49.804;24.072;2023-02-19T10:23:31;96517.69;;;5.53;69.33
35878;BME280;21982;49.804;24.072;2023-02-19T10:25:57;96577.84;;;5.85;69.22
35878;BME280;21982;49.804;24.072;2023-02-19T10:28:29;96453.97;;;5.13;68.87
35878;BME280;21982;49.804;24.072;2023-02-19T10:30:57;96545.91;;;5.73;69.52
35878;BME280;21982;49.804;24.072;2023-02-19T10:33:24;96520.34;;;5.67;69.48
35878;BME280;21982;49.804;24.072;2023-02-19T10:36:02;96490.81;;;5.65;69.39
35878;BME280;21982;49.804;24.072;2023-02-19T10:38:34;96481.16;;;5.81;69.00
35878;BME280;21982;49.804;24.072;2023-02-19T10:43:40;96471.69;;;5.94;68.74
35878;BME280;21982;49.804;24.072;2023-02-19T10:46:19;96548.06;;;6.60;68.42
35878;BME280;21982;49.804;24.072;2023-02-19T10:48:59;96548.63;;;6.70;68.19
35878;BME280;21982;49.804;24.072;2023-02-19T10:51:35;96507.00;;;6.44;67.86
35878;BME280;21982;49.804;24.072;2023-02-19T10:56:40;96566.03;;;6.42;68.38
35878;BME280;21982;49.804;24.072;2023-02-19T11:04:23;96482.59;;;6.06;67.81
35878;BME280;21982;49.804;24.072;2023-02-19T11:06:49;96408.41;;;5.52;68.09
35878;BME280;21982;49.804;24.072;2023-02-19T11:09:25;96468.50;;;5.84;67.73
35878;BME280;21982;49.804;24.072;2023-02-19T11:11:53;96560.03;;;6.33;67.92
35878;BME280;21982;49.804;24.072;2023-02-19T11:14:21;96554.47;;;6.28;67.94
35878;BME280;21982;49.804;24.072;2023-02-19T11:16:59;96509.22;;;6.03;68.04
35878;BME280;21982;49.804;24.072;2023-02-19T11:19:33;96562.66;;;6.33;68.01
35878;BME280;21982;49.804;24.072;2023-02-19T11:22:01;96517.41;;;6.08;67.97
35878;BME280;21982;49.804;24.072;2023-02-19T11:24:33;96368.94;;;5.22;68.13
35878;BME280;21982;49.804;24.072;2023-02-19T11:27:03;96548.44;;;6.42;68.01
35878;BME280;21982;49.804;24.072;2023-02-19T11:29:29;96422.53;;;5.65;67.92
35878;BME280;21982;49.804;24.072;2023-02-19T11:34:44;96543.78;;;6.15;68.29
35878;BME280;21982;49.804;24.072;2023-02-19T11:37:11;96532.66;;;6.42;68.57
35878;BME280;21982;49.804;24.072;2023-02-19T11:39:42;96454.34;;;6.23;68.27
35878;BME280;21982;49.804;24.072;2023-02-19T11:48:42;96512.41;;;6.87;67.76
35878;BME280;21982;49.804;24.072;2023-02-19T11:53:27;96511.81;;;7.06;67.16
35878;BME280;21982;49.804;24.072;2023-02-19T11:56:18;96471.88;;;6.66;67.32
35878;BME280;21982;49.804;24.072;2023-02-19T12:11:18;96512.06;;;6.60;67.05
35878;BME280;21982;49.804;24.072;2023-02-19T12:38:11;96513.34;;;6.20;67.11
35878;BME280;21982;49.804;24.072;2023-02-19T12:43:26;96488.81;;;5.90;67.31
35878;BME280;21982;49.804;24.072;2023-02-19T12:46:00;96474.22;;;5.88;67.81
35878;BME280;21982;49.804;24.072;2023-02-19T12:48:39;96522.47;;;6.10;67.37
35878;BME280;21982;49.804;24.072;2023-02-19T12:51:23;96514.94;;;6.07;67.11
35878;BME280;21982;49.804;24.072;2023-02-19T12:53:57;96520.66;;;6.10;67.72
35878;BME280;21982;49.804;24.072;2023-02-19T12:56:38;96514.41;;;6.11;67.29
35878;BME280;21982;49.804;24.072;2023-02-19T12:59:34;96506.22;;;5.91;67.14
35878;BME280;21982;49.804;24.072;2023-02-19T13:07:42;96535.06;;;5.77;67.62
35878;BME280;21982;49.804;24.072;2023-02-19T13:10:25;96513.81;;;5.63;67.51
35878;BME280;21982;49.804;24.072;2023-02-19T13:12:54;96532.53;;;5.60;67.76
35878;BME280;21982;49.804;24.072;2023-02-19T13:15:30;96535.78;;;5.48;67.82
35878;BME280;21982;49.804;24.072;2023-02-19T13:17:57;96533.28;;;5.23;68.02
35878;BME280;21982;49.804;24.072;2023-02-19T13:20:35;96539.13;;;5.33;68.21
35878;BME280;21982;49.804;24.072;2023-02-19T13:29:04;96544.09;;;5.28;68.19
35878;BME280;21982;49.804;24.072;2023-02-19T13:37:23;96524.38;;;4.79;68.71
35878;BME280;21982;49.804;24.072;2023-02-19T13:39:53;96485.94;;;4.55;68.61
35878;BME280;21982;49.804;24.072;2023-02-19T13:42:25;96510.16;;;4.65;68.99
35878;BME280;21982;49.804;24.072;2023-02-19T13:44:54;96571.50;;;4.95;68.84
35878;BME280;21982;49.804;24.072;2023-02-19T13:48:39;96568.84;;;5.03;68.92
35878;BME280;21982;49.804;24.072;2023-02-19T13:50:35;96560.41;;;4.85;68.95
35878;BME280;21982;49.804;24.072;2023-02-19T13:53:47;96473.94;;;4.21;68.94
35878;BME280;21982;49.804;24.072;2023-02-19T13:55:51;96585.22;;;4.66;69.21
35878;BME280;21982;49.804;24.072;2023-02-19T14:00:59;96570.88;;;4.37;69.77
35878;BME280;21982;49.804;24.072;2023-02-19T14:06:00;96593.97;;;4.42;69.26
35878;BME280;21982;49.804;24.072;2023-02-19T14:08:56;96590.22;;;4.28;69.53
35878;BME280;21982;49.804;24.072;2023-02-19T14:17:03;96604.13;;;4.21;69.46
35878;BME280;21982;49.804;24.072;2023-02-19T14:19:45;96588.41;;;4.21;69.35
35878;BME280;21982;49.804;24.072;2023-02-19T14:27:52;96557.53;;;3.76;69.91
35878;BME280;21982;49.804;24.072;2023-02-19T14:30:19;96602.19;;;4.07;69.55
35878;BME280;21982;49.804;24.072;2023-02-19T14:32:47;96620.69;;;4.13;70.24
35878;BME280;21982;49.804;24.072;2023-02-19T14:35:34;96561.25;;;3.81;69.67
35878;BME280;21982;49.804;24.072;2023-02-19T14:38:02;96628.41;;;4.15;70.19
35878;BME280;21982;49.804;24.072;2023-02-19T14:40:37;96553.25;;;3.83;69.83
35878;BME280;21982;49.804;24.072;2023-02-19T14:43:05;96623.16;;;4.07;69.87
35878;BME280;21982;49.804;24.072;2023-02-19T14:45:48;96571.25;;;3.69;69.96
35878;BME280;21982;49.804;24.072;2023-02-19T14:48:25;96554.56;;;3.62;70.09
35878;BME280;21982;49.804;24.072;2023-02-19T14:50:57;96636.59;;;4.12;69.74
35878;BME280;21982;49.804;24.072;2023-02-19T14:53:25;96638.56;;;4.10;69.83
35878;BME280;21982;49.804;24.072;2023-02-19T14:55:53;96532.00;;;3.45;69.92
35878;BME280;21982;49.804;24.072;2023-02-19T14:58:30;96639.88;;;4.14;69.24
35878;BME280;21982;49.804;24.072;2023-02-19T15:00:56;96643.28;;;4.06;69.71
35878;BME280;21982;49.804;24.072;2023-02-19T15:03:26;96647.72;;;4.14;69.50
35878;BME280;21982;49.804;24.072;2023-02-19T15:05:58;96616.09;;;3.83;69.29
35878;BME280;21982;49.804;24.072;2023-02-19T15:08:41;96659.66;;;4.08;69.09
35878;BME280;21982;49.804;24.072;2023-02-19T15:11:11;96653.94;;;4.04;69.71
35878;BME280;21982;49.804;24.072;2023-02-19T15:13:41;96664.41;;;4.04;69.94